createdAt,value
2017-10-16T00:00:52.657Z,0
2017-10-16T00:02:02.023Z,0
2017-10-16T00:03:11.385Z,0
2017-10-16T00:04:20.417Z,0
2017-10-16T00:05:29.444Z,0
2017-10-16T00:06:38.805Z,0
2017-10-16T00:07:47.509Z,0
2017-10-16T00:08:56.198Z,0
2017-10-16T00:10:05.895Z,0
2017-10-16T00:11:14.928Z,0
2017-10-16T00:12:23.623Z,0
2017-10-16T00:13:32.990Z,0
2017-10-16T00:14:42.352Z,0
2017-10-16T00:15:51.382Z,0
2017-10-16T00:17:00.407Z,0
2017-10-16T00:18:09.103Z,0
2017-10-16T00:19:18.469Z,0
2017-10-16T00:20:27.499Z,0
2017-10-16T00:21:36.526Z,0
2017-10-16T00:22:45.225Z,0
2017-10-16T00:23:54.602Z,0
2017-10-16T00:25:04.323Z,0
2017-10-16T00:26:13.684Z,0
2017-10-16T00:27:22.717Z,0
2017-10-16T00:28:31.417Z,0
2017-10-16T00:29:40.449Z,0
2017-10-16T00:30:50.147Z,0
2017-10-16T00:31:59.180Z,0
2017-10-16T00:33:07.877Z,0
2017-10-16T00:34:17.235Z,0
2017-10-16T00:35:26.259Z,0
2017-10-16T00:36:35.952Z,0
2017-10-16T00:37:45.644Z,0
2017-10-16T00:38:55.031Z,0
2017-10-16T00:40:04.060Z,0
2017-10-16T00:41:13.097Z,0
2017-10-16T00:42:22.125Z,0
2017-10-16T00:43:31.493Z,0
2017-10-16T00:44:40.523Z,0
2017-10-16T00:45:50.561Z,0
2017-10-16T00:46:59.936Z,0
2017-10-16T00:48:08.964Z,0
2017-10-16T00:49:17.992Z,0
2017-10-16T00:50:27.355Z,0
2017-10-16T00:51:36.383Z,0
2017-10-16T00:52:45.412Z,0
2017-10-16T00:53:54.448Z,0
2017-10-16T00:55:03.812Z,0
2017-10-16T00:56:13.173Z,0
2017-10-16T00:57:21.872Z,0
2017-10-16T00:58:30.572Z,0
2017-10-16T00:59:39.940Z,0
2017-10-16T01:00:48.972Z,0
2017-10-16T01:01:58.001Z,0
2017-10-16T01:03:07.700Z,0
2017-10-16T01:04:17.064Z,0
2017-10-16T01:05:26.092Z,0
2017-10-16T01:06:35.455Z,0
2017-10-16T01:07:44.482Z,0
2017-10-16T01:08:53.844Z,0
2017-10-16T01:10:03.205Z,0
2017-10-16T01:11:11.907Z,0
2017-10-16T01:12:20.943Z,0
2017-10-16T01:13:29.970Z,0
2017-10-16T01:14:39.332Z,0
2017-10-16T01:15:48.365Z,0
2017-10-16T01:16:58.400Z,0
2017-10-16T01:18:07.101Z,0
2017-10-16T01:19:17.141Z,0
2017-10-16T01:20:26.170Z,0
2017-10-16T01:21:34.865Z,0
2017-10-16T01:22:43.933Z,0
2017-10-16T01:23:52.973Z,0
2017-10-16T01:25:02.327Z,0
2017-10-16T01:26:11.024Z,0
2017-10-16T01:27:19.724Z,0
2017-10-16T01:28:29.420Z,0
2017-10-16T01:29:38.447Z,0
2017-10-16T01:30:47.146Z,0
2017-10-16T01:31:56.845Z,0
2017-10-16T01:33:05.544Z,0
2017-10-16T01:34:14.243Z,0
2017-10-16T01:35:24.268Z,0
2017-10-16T01:36:33.297Z,0
2017-10-16T01:37:41.995Z,0
2017-10-16T01:38:51.361Z,0
2017-10-16T01:40:00.726Z,0
2017-10-16T01:41:09.763Z,0
2017-10-16T01:42:19.457Z,0
2017-10-16T01:43:28.488Z,0
2017-10-16T01:44:37.188Z,0
2017-10-16T01:45:46.558Z,0
2017-10-16T01:46:55.603Z,0
2017-10-16T01:48:04.625Z,0
2017-10-16T01:49:14.321Z,0
2017-10-16T01:50:23.026Z,0
2017-10-16T01:51:32.059Z,0
2017-10-16T01:52:41.763Z,0
2017-10-16T01:53:50.460Z,0
2017-10-16T01:54:59.512Z,0
2017-10-16T01:56:08.526Z,0
2017-10-16T01:57:18.212Z,0
2017-10-16T01:58:27.243Z,0
2017-10-16T01:59:37.273Z,0
2017-10-16T02:00:46.310Z,0
2017-10-16T02:01:55.338Z,0
2017-10-16T02:03:04.033Z,0
2017-10-16T02:04:12.734Z,0
2017-10-16T02:05:21.430Z,0
2017-10-16T02:06:30.794Z,0
2017-10-16T02:07:40.483Z,0
2017-10-16T02:08:49.511Z,0
2017-10-16T02:09:58.568Z,0
2017-10-16T02:11:07.601Z,0
2017-10-16T02:12:16.964Z,0
2017-10-16T02:13:25.991Z,0
2017-10-16T02:14:35.018Z,0
2017-10-16T02:15:44.049Z,0
2017-10-16T02:16:53.408Z,0
2017-10-16T02:18:03.104Z,0
2017-10-16T02:19:12.133Z,0
2017-10-16T02:20:21.162Z,0
2017-10-16T02:21:30.524Z,0
2017-10-16T02:22:39.232Z,0
2017-10-16T02:23:48.925Z,0
2017-10-16T02:24:57.615Z,0
2017-10-16T02:26:06.650Z,0
2017-10-16T02:27:15.683Z,0
2017-10-16T02:28:25.041Z,0
2017-10-16T02:29:34.074Z,0
2017-10-16T02:30:43.107Z,0
2017-10-16T02:31:51.804Z,0
2017-10-16T02:33:00.836Z,0
2017-10-16T02:34:09.872Z,0
2017-10-16T02:35:18.564Z,0
2017-10-16T02:36:27.257Z,0
2017-10-16T02:37:36.949Z,0
2017-10-16T02:38:45.980Z,0
2017-10-16T02:39:55.012Z,0
2017-10-16T02:41:04.703Z,0
2017-10-16T02:42:14.400Z,0
2017-10-16T02:43:24.108Z,0
2017-10-16T02:44:33.468Z,0
2017-10-16T02:45:43.168Z,0
2017-10-16T02:46:52.207Z,0
2017-10-16T02:48:01.229Z,0
2017-10-16T02:49:10.260Z,0
2017-10-16T02:50:19.294Z,0
2017-10-16T02:51:28.989Z,0
2017-10-16T02:52:38.024Z,0
2017-10-16T02:53:47.053Z,0
2017-10-16T02:54:56.104Z,0
2017-10-16T02:56:05.136Z,0
2017-10-16T02:57:14.499Z,0
2017-10-16T02:58:23.862Z,0
2017-10-16T02:59:33.602Z,0
2017-10-16T03:00:42.965Z,0
2017-10-16T03:01:52.332Z,0
2017-10-16T03:03:01.363Z,0
2017-10-16T03:04:11.717Z,0
2017-10-16T03:05:20.745Z,0
2017-10-16T03:06:29.771Z,0
2017-10-16T03:07:38.805Z,0
2017-10-16T03:08:47.837Z,0
2017-10-16T03:09:56.536Z,0
2017-10-16T03:11:05.566Z,0
2017-10-16T03:12:14.934Z,0
2017-10-16T03:13:23.968Z,0
2017-10-16T03:14:33.324Z,0
2017-10-16T03:15:42.353Z,0
2017-10-16T03:16:51.384Z,0
2017-10-16T03:18:00.749Z,0
2017-10-16T03:19:10.439Z,0
2017-10-16T03:20:19.470Z,0
2017-10-16T03:21:28.508Z,0
2017-10-16T03:22:37.541Z,0
2017-10-16T03:23:47.246Z,0
2017-10-16T03:24:55.945Z,0
2017-10-16T03:26:05.641Z,0
2017-10-16T03:27:15.006Z,0
2017-10-16T03:28:23.709Z,0
2017-10-16T03:29:32.738Z,0
2017-10-16T03:30:42.109Z,0
2017-10-16T03:31:51.465Z,0
2017-10-16T03:33:00.161Z,0
2017-10-16T03:34:09.195Z,0
2017-10-16T03:35:18.223Z,0
2017-10-16T03:36:27.250Z,0
2017-10-16T03:37:36.280Z,0
2017-10-16T03:38:45.314Z,0
2017-10-16T03:39:54.008Z,0
2017-10-16T03:41:03.729Z,0
2017-10-16T03:42:13.094Z,0
2017-10-16T03:43:22.123Z,0
2017-10-16T03:44:30.818Z,0
2017-10-16T03:45:39.523Z,0
2017-10-16T03:46:49.209Z,0
2017-10-16T03:47:58.576Z,0
2017-10-16T03:49:07.609Z,0
2017-10-16T03:50:16.637Z,0
2017-10-16T03:51:26.329Z,0
2017-10-16T03:52:35.360Z,0
2017-10-16T03:53:44.727Z,0
2017-10-16T03:54:54.418Z,0
2017-10-16T03:56:04.120Z,0
2017-10-16T03:57:13.153Z,0
2017-10-16T03:58:22.181Z,0
2017-10-16T03:59:30.881Z,0
2017-10-16T04:00:40.247Z,0
2017-10-16T04:01:49.282Z,0
2017-10-16T04:02:58.309Z,0
2017-10-16T04:04:07.007Z,0
2017-10-16T04:05:15.701Z,0
2017-10-16T04:06:24.726Z,0
2017-10-16T04:07:34.100Z,0
2017-10-16T04:08:43.461Z,0
2017-10-16T04:09:52.820Z,0
2017-10-16T04:11:01.850Z,0
2017-10-16T04:12:11.549Z,0
2017-10-16T04:13:20.251Z,0
2017-10-16T04:14:30.618Z,0
2017-10-16T04:15:40.314Z,0
2017-10-16T04:16:49.679Z,0
2017-10-16T04:17:59.041Z,0
2017-10-16T04:19:08.401Z,0
2017-10-16T04:20:17.431Z,0
2017-10-16T04:21:26.797Z,0
2017-10-16T04:22:36.495Z,0
2017-10-16T04:23:45.194Z,0
2017-10-16T04:24:54.218Z,0
2017-10-16T04:26:03.248Z,0
2017-10-16T04:27:12.614Z,0
2017-10-16T04:28:21.984Z,0
2017-10-16T04:29:31.680Z,0
2017-10-16T04:30:41.379Z,0
2017-10-16T04:31:50.084Z,0
2017-10-16T04:32:59.772Z,0
2017-10-16T04:34:09.136Z,0
2017-10-16T04:35:18.495Z,0
2017-10-16T04:36:27.854Z,0
2017-10-16T04:37:37.216Z,0
2017-10-16T04:38:46.250Z,0
2017-10-16T04:39:55.288Z,0
2017-10-16T04:41:05.310Z,0
2017-10-16T04:42:14.336Z,0
2017-10-16T04:43:23.368Z,0
2017-10-16T04:44:32.399Z,0
2017-10-16T04:45:41.101Z,0
2017-10-16T04:46:49.801Z,0
2017-10-16T04:47:59.167Z,0
2017-10-16T04:49:08.869Z,0
2017-10-16T04:50:17.570Z,0
2017-10-16T04:51:26.267Z,0
2017-10-16T04:52:35.969Z,0
2017-10-16T04:53:45.332Z,0
2017-10-16T04:54:54.030Z,0
2017-10-16T04:56:02.730Z,0
2017-10-16T04:57:11.760Z,0
2017-10-16T04:58:21.128Z,0
2017-10-16T04:59:30.158Z,0
2017-10-16T05:00:39.189Z,0
2017-10-16T05:01:48.555Z,0
2017-10-16T05:02:57.922Z,0
2017-10-16T05:04:07.269Z,0
2017-10-16T05:05:16.299Z,0
2017-10-16T05:06:25.658Z,0
2017-10-16T05:07:35.352Z,0
2017-10-16T05:08:44.049Z,0
2017-10-16T05:09:53.409Z,0
2017-10-16T05:11:02.109Z,0
2017-10-16T05:12:11.144Z,0
2017-10-16T05:13:20.510Z,0
2017-10-16T05:14:30.539Z,0
2017-10-16T05:15:40.232Z,0
2017-10-16T05:16:49.266Z,0
2017-10-16T05:17:58.296Z,0
2017-10-16T05:19:07.329Z,0
2017-10-16T05:20:16.026Z,0
2017-10-16T05:21:25.055Z,0
2017-10-16T05:22:33.753Z,0
2017-10-16T05:23:42.780Z,0
2017-10-16T05:24:52.142Z,0
2017-10-16T05:26:00.837Z,0
2017-10-16T05:27:10.569Z,0
2017-10-16T05:28:19.268Z,0
2017-10-16T05:29:28.628Z,0
2017-10-16T05:30:38.326Z,0
2017-10-16T05:31:47.700Z,0
2017-10-16T05:32:56.397Z,0
2017-10-16T05:34:05.430Z,0
2017-10-16T05:35:14.461Z,0
2017-10-16T05:36:23.825Z,0
2017-10-16T05:37:32.854Z,0
2017-10-16T05:38:42.560Z,0
2017-10-16T05:39:52.263Z,0
2017-10-16T05:41:00.956Z,0
2017-10-16T05:42:10.320Z,0
2017-10-16T05:43:20.351Z,0
2017-10-16T05:44:29.046Z,0
2017-10-16T05:45:38.073Z,0
2017-10-16T05:46:47.099Z,0
2017-10-16T05:47:56.126Z,0
2017-10-16T05:49:06.154Z,0
2017-10-16T05:50:15.519Z,0
2017-10-16T05:51:24.874Z,0
2017-10-16T05:52:33.903Z,0
2017-10-16T05:53:42.605Z,0
2017-10-16T05:54:51.304Z,0
2017-10-16T05:56:00.335Z,0
2017-10-16T05:57:09.033Z,0
2017-10-16T05:58:18.065Z,0
2017-10-16T05:59:26.766Z,0
2017-10-16T06:00:36.813Z,0
2017-10-16T06:01:46.511Z,0
2017-10-16T06:02:55.881Z,0
2017-10-16T06:04:04.916Z,0
2017-10-16T06:05:14.626Z,0
2017-10-16T06:06:23.649Z,0
2017-10-16T06:07:33.027Z,0
2017-10-16T06:08:42.058Z,0
2017-10-16T06:09:51.090Z,0
2017-10-16T06:11:00.125Z,0
2017-10-16T06:12:08.823Z,0
2017-10-16T06:13:17.851Z,0
2017-10-16T06:14:27.544Z,0
2017-10-16T06:15:36.910Z,0
2017-10-16T06:16:45.940Z,0
2017-10-16T06:17:54.970Z,0
2017-10-16T06:19:04.331Z,5
2017-10-16T06:20:13.697Z,5
2017-10-16T06:21:23.058Z,5
2017-10-16T06:22:32.758Z,5
2017-10-16T06:23:41.448Z,5
2017-10-16T06:24:50.475Z,5
2017-10-16T06:25:59.839Z,5
2017-10-16T06:27:08.538Z,5
2017-10-16T06:28:18.262Z,5
2017-10-16T06:29:26.964Z,5
2017-10-16T06:30:35.658Z,5
2017-10-16T06:31:44.360Z,5
2017-10-16T06:32:54.062Z,5
2017-10-16T06:34:03.464Z,5
2017-10-16T06:35:12.165Z,10
2017-10-16T06:36:21.196Z,10
2017-10-16T06:37:30.905Z,10
2017-10-16T06:38:39.602Z,10
2017-10-16T06:39:48.628Z,10
2017-10-16T06:40:57.658Z,10
2017-10-16T06:42:06.689Z,10
2017-10-16T06:43:15.392Z,10
2017-10-16T06:44:24.417Z,10
2017-10-16T06:45:33.781Z,10
2017-10-16T06:46:42.821Z,10
2017-10-16T06:47:52.181Z,15
2017-10-16T06:49:01.541Z,15
2017-10-16T06:50:11.231Z,15
2017-10-16T06:51:20.262Z,15
2017-10-16T06:52:29.633Z,15
2017-10-16T06:53:38.320Z,15
2017-10-16T06:54:47.682Z,15
2017-10-16T06:55:57.049Z,15
2017-10-16T06:57:06.423Z,25
2017-10-16T06:58:16.120Z,30
2017-10-16T06:59:25.142Z,25
2017-10-16T07:00:34.506Z,20
2017-10-16T07:01:43.206Z,20
2017-10-16T07:02:52.572Z,20
2017-10-16T07:04:01.937Z,25
2017-10-16T07:05:11.003Z,30
2017-10-16T07:06:20.336Z,30
2017-10-16T07:07:29.701Z,30
2017-10-16T07:08:38.738Z,30
2017-10-16T07:09:47.770Z,30
2017-10-16T07:10:57.144Z,40
2017-10-16T07:12:06.549Z,45
2017-10-16T07:13:15.581Z,65
2017-10-16T07:14:24.280Z,80
2017-10-16T07:15:33.325Z,45
2017-10-16T07:16:42.357Z,20
2017-10-16T07:17:51.717Z,15
2017-10-16T07:19:01.413Z,15
2017-10-16T07:20:10.774Z,15
2017-10-16T07:21:19.805Z,15
2017-10-16T07:22:28.836Z,15
2017-10-16T07:23:37.868Z,15
2017-10-16T07:24:47.562Z,15
2017-10-16T07:25:56.257Z,20
2017-10-16T07:27:05.621Z,20
2017-10-16T07:28:14.322Z,30
2017-10-16T07:29:23.360Z,40
2017-10-16T07:30:32.722Z,50
2017-10-16T07:31:41.761Z,100
2017-10-16T07:32:51.122Z,175
2017-10-16T07:34:00.158Z,125
2017-10-16T07:35:08.858Z,90
2017-10-16T07:36:18.550Z,100
2017-10-16T07:37:27.243Z,255
2017-10-16T07:38:36.273Z,335
2017-10-16T07:39:44.970Z,430
2017-10-16T07:40:55.001Z,465
2017-10-16T07:42:04.358Z,470
2017-10-16T07:43:13.058Z,465
2017-10-16T07:44:22.419Z,450
2017-10-16T07:45:31.466Z,235
2017-10-16T07:46:40.168Z,135
2017-10-16T07:47:48.867Z,110
2017-10-16T07:48:58.569Z,85
2017-10-16T07:50:07.942Z,75
2017-10-16T07:51:16.986Z,75
2017-10-16T07:52:26.693Z,70
2017-10-16T07:53:35.723Z,70
2017-10-16T07:54:44.756Z,70
2017-10-16T07:55:54.117Z,70
2017-10-16T07:57:03.154Z,70
2017-10-16T07:58:11.840Z,70
2017-10-16T07:59:20.543Z,70
2017-10-16T08:00:29.903Z,70
2017-10-16T08:01:38.603Z,70
2017-10-16T08:02:48.314Z,70
2017-10-16T08:03:58.012Z,70
2017-10-16T08:05:07.371Z,70
2017-10-16T08:06:16.408Z,70
2017-10-16T08:07:25.107Z,75
2017-10-16T08:08:34.148Z,70
2017-10-16T08:09:43.506Z,70
2017-10-16T08:10:52.542Z,65
2017-10-16T08:12:02.255Z,70
2017-10-16T08:13:11.613Z,70
2017-10-16T08:14:20.644Z,70
2017-10-16T08:15:29.680Z,70
2017-10-16T08:16:38.712Z,70
2017-10-16T08:17:47.745Z,70
2017-10-16T08:18:57.439Z,70
2017-10-16T08:20:06.807Z,70
2017-10-16T08:21:16.171Z,70
2017-10-16T08:22:24.868Z,70
2017-10-16T08:23:33.995Z,70
2017-10-16T08:24:42.700Z,65
2017-10-16T08:25:51.734Z,65
2017-10-16T08:27:01.102Z,65
2017-10-16T08:28:09.799Z,65
2017-10-16T08:29:19.164Z,65
2017-10-16T08:30:27.866Z,70
2017-10-16T08:31:36.894Z,70
2017-10-16T08:32:46.592Z,65
2017-10-16T08:33:55.295Z,70
2017-10-16T08:35:04.669Z,65
2017-10-16T08:36:14.032Z,65
2017-10-16T08:37:23.729Z,70
2017-10-16T08:38:32.762Z,70
2017-10-16T08:39:42.117Z,70
2017-10-16T08:40:51.146Z,70
2017-10-16T08:41:59.843Z,70
2017-10-16T08:43:09.206Z,70
2017-10-16T08:44:18.236Z,70
2017-10-16T08:45:27.928Z,70
2017-10-16T08:46:37.295Z,70
2017-10-16T08:47:46.660Z,70
2017-10-16T08:48:56.357Z,70
2017-10-16T08:50:05.057Z,70
2017-10-16T08:51:14.426Z,70
2017-10-16T08:52:23.466Z,70
2017-10-16T08:53:32.157Z,70
2017-10-16T08:54:40.859Z,70
2017-10-16T08:55:49.562Z,70
2017-10-16T08:56:58.929Z,75
2017-10-16T08:58:07.628Z,75
2017-10-16T08:59:16.994Z,75
2017-10-16T09:00:26.356Z,75
2017-10-16T09:01:35.386Z,75
2017-10-16T09:02:44.089Z,75
2017-10-16T09:03:53.123Z,80
2017-10-16T09:05:02.158Z,80
2017-10-16T09:06:10.859Z,80
2017-10-16T09:07:19.897Z,85
2017-10-16T09:08:29.598Z,85
2017-10-16T09:09:39.303Z,90
2017-10-16T09:10:48.003Z,90
2017-10-16T09:11:57.041Z,95
2017-10-16T09:13:06.405Z,95
2017-10-16T09:14:15.440Z,100
2017-10-16T09:15:24.143Z,100
2017-10-16T09:16:32.844Z,100
2017-10-16T09:17:41.877Z,105
2017-10-16T09:18:51.236Z,110
2017-10-16T09:20:00.275Z,105
2017-10-16T09:21:10.317Z,110
2017-10-16T09:22:20.024Z,115
2017-10-16T09:23:29.393Z,115
2017-10-16T09:24:38.435Z,115
2017-10-16T09:25:48.137Z,110
2017-10-16T09:26:57.507Z,115
2017-10-16T09:28:06.865Z,115
2017-10-16T09:29:15.898Z,115
2017-10-16T09:30:24.935Z,115
2017-10-16T09:31:35.030Z,120
2017-10-16T09:32:44.075Z,120
2017-10-16T09:33:53.109Z,125
2017-10-16T09:35:02.143Z,125
2017-10-16T09:36:10.839Z,125
2017-10-16T09:37:19.869Z,125
2017-10-16T09:38:29.237Z,125
2017-10-16T09:39:38.932Z,130
2017-10-16T09:40:48.630Z,135
2017-10-16T09:41:57.330Z,135
2017-10-16T09:43:06.361Z,140
2017-10-16T09:44:15.063Z,135
2017-10-16T09:45:24.754Z,135
2017-10-16T09:46:33.804Z,135
2017-10-16T09:47:42.839Z,135
2017-10-16T09:48:52.552Z,135
2017-10-16T09:50:01.913Z,135
2017-10-16T09:51:11.644Z,120
2017-10-16T09:52:20.341Z,140
2017-10-16T09:53:29.710Z,140
2017-10-16T09:54:38.753Z,145
2017-10-16T09:55:47.789Z,140
2017-10-16T09:56:56.821Z,140
2017-10-16T09:58:05.522Z,140
2017-10-16T09:59:14.556Z,145
2017-10-16T10:00:23.927Z,150
2017-10-16T10:01:33.325Z,150
2017-10-16T10:02:42.362Z,155
2017-10-16T10:03:51.400Z,160
2017-10-16T10:05:00.097Z,160
2017-10-16T10:06:09.134Z,165
2017-10-16T10:07:18.169Z,165
2017-10-16T10:08:27.204Z,130
2017-10-16T10:09:36.575Z,150
2017-10-16T10:10:46.275Z,180
2017-10-16T10:11:55.647Z,120
2017-10-16T10:13:04.680Z,90
2017-10-16T10:14:13.716Z,95
2017-10-16T10:15:23.425Z,75
2017-10-16T10:16:32.131Z,65
2017-10-16T10:17:41.832Z,70
2017-10-16T10:18:50.868Z,155
2017-10-16T10:19:59.573Z,165
2017-10-16T10:21:08.943Z,175
2017-10-16T10:22:17.980Z,175
2017-10-16T10:23:26.684Z,175
2017-10-16T10:24:36.392Z,180
2017-10-16T10:25:45.423Z,185
2017-10-16T10:26:54.126Z,145
2017-10-16T10:28:03.164Z,110
2017-10-16T10:29:12.865Z,80
2017-10-16T10:30:22.233Z,70
2017-10-16T10:31:30.935Z,90
2017-10-16T10:32:39.970Z,115
2017-10-16T10:33:49.691Z,195
2017-10-16T10:34:59.404Z,75
2017-10-16T10:36:08.101Z,95
2017-10-16T10:37:17.469Z,100
2017-10-16T10:38:26.833Z,85
2017-10-16T10:39:35.870Z,65
2017-10-16T10:40:45.236Z,55
2017-10-16T10:41:54.271Z,55
2017-10-16T10:43:03.305Z,65
2017-10-16T10:44:12.682Z,60
2017-10-16T10:45:22.383Z,55
2017-10-16T10:46:31.414Z,50
2017-10-16T10:47:40.116Z,50
2017-10-16T10:48:49.484Z,45
2017-10-16T10:49:58.520Z,45
2017-10-16T10:51:07.554Z,45
2017-10-16T10:52:16.595Z,50
2017-10-16T10:53:25.631Z,50
2017-10-16T10:54:34.665Z,50
2017-10-16T10:55:43.705Z,55
2017-10-16T10:56:52.731Z,55
2017-10-16T10:58:01.758Z,55
2017-10-16T10:59:11.133Z,55
2017-10-16T11:00:20.494Z,55
2017-10-16T11:01:30.188Z,55
2017-10-16T11:02:39.548Z,55
2017-10-16T11:03:48.246Z,55
2017-10-16T11:04:57.617Z,55
2017-10-16T11:06:06.312Z,55
2017-10-16T11:07:16.029Z,55
2017-10-16T11:08:25.381Z,55
2017-10-16T11:09:34.422Z,60
2017-10-16T11:10:43.457Z,65
2017-10-16T11:11:52.821Z,65
2017-10-16T11:13:02.527Z,65
2017-10-16T11:14:11.892Z,70
2017-10-16T11:15:20.929Z,80
2017-10-16T11:16:29.965Z,70
2017-10-16T11:17:38.666Z,70
2017-10-16T11:18:48.029Z,65
2017-10-16T11:19:57.733Z,60
2017-10-16T11:21:06.763Z,60
2017-10-16T11:22:15.798Z,60
2017-10-16T11:23:24.828Z,55
2017-10-16T11:24:34.190Z,55
2017-10-16T11:25:43.555Z,55
2017-10-16T11:26:52.633Z,55
2017-10-16T11:28:01.648Z,55
2017-10-16T11:29:10.324Z,55
2017-10-16T11:30:19.693Z,55
2017-10-16T11:31:28.725Z,60
2017-10-16T11:32:38.423Z,85
2017-10-16T11:33:47.797Z,130
2017-10-16T11:34:57.161Z,110
2017-10-16T11:36:06.194Z,95
2017-10-16T11:37:15.897Z,80
2017-10-16T11:38:25.257Z,90
2017-10-16T11:39:34.621Z,85
2017-10-16T11:40:43.986Z,80
2017-10-16T11:41:53.684Z,80
2017-10-16T11:43:03.047Z,85
2017-10-16T11:44:12.411Z,90
2017-10-16T11:45:21.443Z,95
2017-10-16T11:46:30.810Z,90
2017-10-16T11:47:39.847Z,95
2017-10-16T11:48:48.892Z,95
2017-10-16T11:49:57.927Z,100
2017-10-16T11:51:06.959Z,100
2017-10-16T11:52:15.989Z,100
2017-10-16T11:53:26.362Z,100
2017-10-16T11:54:36.057Z,100
2017-10-16T11:55:45.422Z,100
2017-10-16T11:56:54.785Z,100
2017-10-16T11:58:03.824Z,100
2017-10-16T11:59:12.854Z,95
2017-10-16T12:00:21.892Z,95
2017-10-16T12:01:31.260Z,90
2017-10-16T12:02:40.630Z,85
2017-10-16T12:03:50.004Z,80
2017-10-16T12:04:59.037Z,75
2017-10-16T12:06:08.074Z,75
2017-10-16T12:07:17.776Z,75
2017-10-16T12:08:26.478Z,75
2017-10-16T12:09:35.530Z,75
2017-10-16T12:10:44.543Z,70
2017-10-16T12:11:54.582Z,65
2017-10-16T12:13:03.958Z,50
2017-10-16T12:14:13.011Z,45
2017-10-16T12:15:22.052Z,45
2017-10-16T12:16:31.087Z,45
2017-10-16T12:17:39.785Z,40
2017-10-16T12:18:49.148Z,40
2017-10-16T12:19:58.182Z,35
2017-10-16T12:21:06.887Z,35
2017-10-16T12:22:15.917Z,35
2017-10-16T12:23:25.288Z,35
2017-10-16T12:24:34.327Z,35
2017-10-16T12:25:44.021Z,35
2017-10-16T12:26:53.060Z,40
2017-10-16T12:28:02.428Z,45
2017-10-16T12:29:11.131Z,45
2017-10-16T12:30:20.496Z,45
2017-10-16T12:31:29.530Z,50
2017-10-16T12:32:38.900Z,50
2017-10-16T12:33:47.939Z,50
2017-10-16T12:34:56.976Z,45
2017-10-16T12:36:06.009Z,45
2017-10-16T12:37:14.709Z,45
2017-10-16T12:38:23.740Z,45
2017-10-16T12:39:33.101Z,50
2017-10-16T12:40:42.810Z,45
2017-10-16T12:41:51.512Z,35
2017-10-16T12:43:00.546Z,30
2017-10-16T12:44:09.253Z,30
2017-10-16T12:45:18.627Z,30
2017-10-16T12:46:27.654Z,35
2017-10-16T12:47:36.723Z,40
2017-10-16T12:48:46.432Z,40
2017-10-16T12:49:55.796Z,40
2017-10-16T12:51:04.838Z,40
2017-10-16T12:52:14.205Z,40
2017-10-16T12:53:23.906Z,40
2017-10-16T12:54:32.932Z,40
2017-10-16T12:55:42.635Z,45
2017-10-16T12:56:51.681Z,45
2017-10-16T12:58:00.716Z,45
2017-10-16T12:59:10.429Z,40
2017-10-16T13:00:19.130Z,45
2017-10-16T13:01:28.501Z,45
2017-10-16T13:02:37.864Z,45
2017-10-16T13:03:47.234Z,45
2017-10-16T13:04:55.940Z,45
2017-10-16T13:06:05.305Z,40
2017-10-16T13:07:14.337Z,40
2017-10-16T13:08:23.368Z,40
2017-10-16T13:09:32.402Z,40
2017-10-16T13:10:41.104Z,40
2017-10-16T13:11:49.804Z,40
2017-10-16T13:12:59.173Z,40
2017-10-16T13:14:08.206Z,40
2017-10-16T13:15:16.914Z,35
2017-10-16T13:16:26.610Z,35
2017-10-16T13:17:35.648Z,40
2017-10-16T13:18:44.682Z,30
2017-10-16T13:19:53.721Z,25
2017-10-16T13:21:03.760Z,25
2017-10-16T13:22:12.464Z,20
2017-10-16T13:23:21.167Z,20
2017-10-16T13:24:30.196Z,15
2017-10-16T13:25:39.231Z,15
2017-10-16T13:26:47.930Z,15
2017-10-16T13:27:57.304Z,15
2017-10-16T13:29:06.676Z,15
2017-10-16T13:30:15.714Z,15
2017-10-16T13:31:24.417Z,15
2017-10-16T13:32:33.449Z,15
2017-10-16T13:33:42.148Z,15
2017-10-16T13:34:51.508Z,15
2017-10-16T13:36:00.868Z,15
2017-10-16T13:37:10.230Z,15
2017-10-16T13:38:18.929Z,15
2017-10-16T13:39:27.624Z,15
2017-10-16T13:40:36.653Z,15
2017-10-16T13:41:46.024Z,20
2017-10-16T13:42:55.055Z,20
2017-10-16T13:44:04.755Z,20
2017-10-16T13:45:13.790Z,20
2017-10-16T13:46:22.827Z,20
2017-10-16T13:47:31.859Z,20
2017-10-16T13:48:41.235Z,20
2017-10-16T13:49:50.606Z,20
2017-10-16T13:50:59.639Z,20
2017-10-16T13:52:09.335Z,20
2017-10-16T13:53:18.367Z,25
2017-10-16T13:54:27.070Z,25
2017-10-16T13:55:36.105Z,25
2017-10-16T13:56:44.810Z,25
2017-10-16T13:57:53.847Z,25
2017-10-16T13:59:02.548Z,25
2017-10-16T14:00:11.584Z,25
2017-10-16T14:01:21.280Z,25
2017-10-16T14:02:30.315Z,30
2017-10-16T14:03:39.681Z,25
2017-10-16T14:04:48.712Z,20
2017-10-16T14:05:57.760Z,20
2017-10-16T14:07:06.792Z,20
2017-10-16T14:08:16.158Z,20
2017-10-16T14:09:25.526Z,20
2017-10-16T14:10:35.224Z,25
2017-10-16T14:11:44.255Z,25
2017-10-16T14:12:53.284Z,25
2017-10-16T14:14:02.319Z,25
2017-10-16T14:15:11.346Z,25
2017-10-16T14:16:21.374Z,25
2017-10-16T14:17:30.746Z,25
2017-10-16T14:18:39.777Z,25
2017-10-16T14:19:48.806Z,20
2017-10-16T14:20:57.509Z,20
2017-10-16T14:22:06.542Z,20
2017-10-16T14:23:15.570Z,15
2017-10-16T14:24:24.609Z,15
2017-10-16T14:25:33.977Z,15
2017-10-16T14:26:43.007Z,15
2017-10-16T14:27:51.713Z,15
2017-10-16T14:29:00.744Z,15
2017-10-16T14:30:09.442Z,15
2017-10-16T14:31:19.135Z,10
2017-10-16T14:32:28.503Z,10
2017-10-16T14:33:38.198Z,10
2017-10-16T14:34:46.899Z,10
2017-10-16T14:35:55.930Z,10
2017-10-16T14:37:04.967Z,10
2017-10-16T14:38:14.336Z,10
2017-10-16T14:39:23.039Z,10
2017-10-16T14:40:32.077Z,10
2017-10-16T14:41:41.779Z,10
2017-10-16T14:42:50.480Z,10
2017-10-16T14:43:59.853Z,10
2017-10-16T14:45:08.552Z,10
2017-10-16T14:46:17.586Z,10
2017-10-16T14:47:26.284Z,10
2017-10-16T14:48:36.002Z,10
2017-10-16T14:49:45.365Z,10
2017-10-16T14:50:54.737Z,10
2017-10-16T14:52:03.769Z,10
2017-10-16T14:53:12.468Z,10
2017-10-16T14:54:21.846Z,10
2017-10-16T14:55:30.546Z,10
2017-10-16T14:56:39.912Z,10
2017-10-16T14:57:48.943Z,10
2017-10-16T14:58:57.978Z,10
2017-10-16T15:00:07.678Z,10
2017-10-16T15:01:17.055Z,10
2017-10-16T15:02:25.759Z,10
2017-10-16T15:03:34.508Z,5
2017-10-16T15:04:43.543Z,5
2017-10-16T15:05:52.576Z,5
2017-10-16T15:07:01.276Z,5
2017-10-16T15:08:10.641Z,5
2017-10-16T15:09:20.002Z,5
2017-10-16T15:10:29.031Z,5
2017-10-16T15:11:37.732Z,5
2017-10-16T15:12:46.430Z,5
2017-10-16T15:13:55.481Z,5
2017-10-16T15:15:04.852Z,5
2017-10-16T15:16:14.221Z,5
2017-10-16T15:17:23.259Z,5
2017-10-16T15:18:32.299Z,5
2017-10-16T15:19:42.002Z,5
2017-10-16T15:20:51.031Z,5
2017-10-16T15:22:00.730Z,5
2017-10-16T15:23:09.431Z,5
2017-10-16T15:24:18.465Z,5
2017-10-16T15:25:28.180Z,5
2017-10-16T15:26:37.221Z,5
2017-10-16T15:27:46.591Z,5
2017-10-16T15:28:55.629Z,5
2017-10-16T15:30:05.011Z,5
2017-10-16T15:31:14.047Z,5
2017-10-16T15:32:22.759Z,5
2017-10-16T15:33:31.458Z,5
2017-10-16T15:34:40.827Z,5
2017-10-16T15:35:49.868Z,5
2017-10-16T15:36:58.913Z,5
2017-10-16T15:38:08.269Z,5
2017-10-16T15:39:17.313Z,5
2017-10-16T15:40:26.344Z,5
2017-10-16T15:41:35.050Z,5
2017-10-16T15:42:43.752Z,5
2017-10-16T15:43:53.119Z,0
2017-10-16T15:45:02.159Z,0
2017-10-16T15:46:11.864Z,0
2017-10-16T15:47:21.560Z,0
2017-10-16T15:48:30.593Z,0
2017-10-16T15:49:39.955Z,0
2017-10-16T15:50:49.644Z,0
2017-10-16T15:51:58.342Z,0
2017-10-16T15:53:07.043Z,0
2017-10-16T15:54:16.410Z,0
2017-10-16T15:55:25.107Z,0
2017-10-16T15:56:34.802Z,0
2017-10-16T15:57:44.166Z,0
2017-10-16T15:58:52.865Z,0
2017-10-16T16:00:01.897Z,0
2017-10-16T16:01:11.260Z,0
2017-10-16T16:02:20.620Z,0
2017-10-16T16:03:29.991Z,0
2017-10-16T16:04:39.025Z,0
2017-10-16T16:05:48.058Z,0
2017-10-16T16:06:57.089Z,0
2017-10-16T16:08:06.122Z,0
2017-10-16T16:09:15.155Z,0
2017-10-16T16:10:23.858Z,0
2017-10-16T16:11:33.551Z,0
2017-10-16T16:12:42.246Z,0
2017-10-16T16:13:51.609Z,0
2017-10-16T16:15:00.974Z,0
2017-10-16T16:16:10.003Z,0
2017-10-16T16:17:19.031Z,0
2017-10-16T16:18:29.062Z,0
2017-10-16T16:19:38.438Z,0
2017-10-16T16:20:47.797Z,0
2017-10-16T16:21:57.169Z,0
2017-10-16T16:23:06.204Z,0
2017-10-16T16:24:15.245Z,0
2017-10-16T16:25:24.615Z,0
2017-10-16T16:26:33.981Z,0
2017-10-16T16:27:43.016Z,0
2017-10-16T16:28:51.717Z,0
2017-10-16T16:30:00.753Z,0
2017-10-16T16:31:10.444Z,0
2017-10-16T16:32:19.814Z,0
2017-10-16T16:33:29.531Z,0
2017-10-16T16:34:38.226Z,0
2017-10-16T16:35:47.267Z,0
2017-10-16T16:36:56.640Z,0
2017-10-16T16:38:06.007Z,0
2017-10-16T16:39:15.037Z,0
2017-10-16T16:40:24.074Z,0